sensor_id;sensor_type;location;lat;lon;timestamp;P1;durP1;ratioP1;P2;durP2;ratioP2
16624;SDS011;8426;48.496;9.098;2022-09-13T00:00:20;1.42;;;1.20;;
16624;SDS011;8426;48.496;9.098;2022-09-13T00:05:25;2.95;;;1.58;;
16624;SDS011;8426;48.496;9.098;2022-09-13T00:10:29;3.35;;;1.50;;
16624;SDS011;8426;48.496;9.098;2022-09-13T00:15:33;2.10;;;1.48;;
16624;SDS011;8426;48.496;9.098;2022-09-13T00:20:39;3.40;;;1.15;;
16624;SDS011;8426;48.496;9.098;2022-09-13T00:25:42;1.85;;;1.40;;
16624;SDS011;8426;48.496;9.098;2022-09-13T00:30:45;4.22;;;1.08;;
16624;SDS011;8426;48.496;9.098;2022-09-13T00:35:50;3.35;;;1.60;;
16624;SDS011;8426;48.496;9.098;2022-09-13T00:40:53;2.38;;;1.42;;
16624;SDS011;8426;48.496;9.098;2022-09-13T00:45:56;1.83;;;1.38;;
16624;SDS011;8426;48.496;9.098;2022-09-13T00:51:01;2.25;;;1.30;;
16624;SDS011;8426;48.496;9.098;2022-09-13T00:56:08;2.72;;;1.50;;
16624;SDS011;8426;48.496;9.098;2022-09-13T01:01:14;2.25;;;1.40;;
16624;SDS011;8426;48.496;9.098;2022-09-13T01:06:23;1.80;;;1.33;;
16624;SDS011;8426;48.496;9.098;2022-09-13T01:11:31;3.03;;;1.58;;
16624;SDS011;8426;48.496;9.098;2022-09-13T01:16:40;2.33;;;1.80;;
16624;SDS011;8426;48.496;9.098;2022-09-13T01:21:55;2.85;;;1.55;;
16624;SDS011;8426;48.496;9.098;2022-09-13T01:32:52;1.83;;;1.27;;
16624;SDS011;8426;48.496;9.098;2022-09-13T01:38:26;3.30;;;1.25;;
16624;SDS011;8426;48.496;9.098;2022-09-13T01:43:46;2.40;;;1.50;;
16624;SDS011;8426;48.496;9.098;2022-09-13T01:48:56;2.42;;;1.50;;
16624;SDS011;8426;48.496;9.098;2022-09-13T01:54:10;3.17;;;1.60;;
16624;SDS011;8426;48.496;9.098;2022-09-13T01:59:20;3.08;;;1.65;;
16624;SDS011;8426;48.496;9.098;2022-09-13T02:04:32;4.85;;;1.65;;
16624;SDS011;8426;48.496;9.098;2022-09-13T02:09:40;5.60;;;1.48;;
16624;SDS011;8426;48.496;9.098;2022-09-13T02:14:48;2.17;;;1.50;;
16624;SDS011;8426;48.496;9.098;2022-09-13T02:19:57;2.78;;;1.67;;
16624;SDS011;8426;48.496;9.098;2022-09-13T02:25:04;2.55;;;1.40;;
16624;SDS011;8426;48.496;9.098;2022-09-13T02:30:11;2.80;;;1.73;;
16624;SDS011;8426;48.496;9.098;2022-09-13T02:35:17;3.13;;;1.42;;
16624;SDS011;8426;48.496;9.098;2022-09-13T02:40:25;2.13;;;1.50;;
16624;SDS011;8426;48.496;9.098;2022-09-13T02:45:32;2.05;;;1.38;;
16624;SDS011;8426;48.496;9.098;2022-09-13T02:50:47;1.85;;;1.45;;
16624;SDS011;8426;48.496;9.098;2022-09-13T02:56:00;8.90;;;1.63;;
16624;SDS011;8426;48.496;9.098;2022-09-13T03:01:08;3.95;;;1.83;;
16624;SDS011;8426;48.496;9.098;2022-09-13T03:06:20;3.13;;;1.65;;
16624;SDS011;8426;48.496;9.098;2022-09-13T03:11:26;2.00;;;1.30;;
16624;SDS011;8426;48.496;9.098;2022-09-13T03:16:41;2.65;;;1.45;;
16624;SDS011;8426;48.496;9.098;2022-09-13T03:21:57;2.85;;;1.67;;
16624;SDS011;8426;48.496;9.098;2022-09-13T03:27:26;3.20;;;1.60;;
16624;SDS011;8426;48.496;9.098;2022-09-13T03:32:40;5.05;;;1.38;;
16624;SDS011;8426;48.496;9.098;2022-09-13T03:37:53;2.10;;;1.52;;
16624;SDS011;8426;48.496;9.098;2022-09-13T03:43:02;5.55;;;1.60;;
16624;SDS011;8426;48.496;9.098;2022-09-13T03:48:10;2.25;;;1.65;;
16624;SDS011;8426;48.496;9.098;2022-09-13T03:53:17;3.55;;;1.88;;
16624;SDS011;8426;48.496;9.098;2022-09-13T03:58:24;3.42;;;1.92;;
16624;SDS011;8426;48.496;9.098;2022-09-13T04:03:28;1.83;;;1.30;;
16624;SDS011;8426;48.496;9.098;2022-09-13T04:08:33;4.38;;;1.38;;
16624;SDS011;8426;48.496;9.098;2022-09-13T04:13:36;2.85;;;1.30;;
16624;SDS011;8426;48.496;9.098;2022-09-13T04:18:40;4.57;;;1.42;;
16624;SDS011;8426;48.496;9.098;2022-09-13T04:23:44;2.25;;;1.20;;
16624;SDS011;8426;48.496;9.098;2022-09-13T04:28:53;2.53;;;1.17;;
16624;SDS011;8426;48.496;9.098;2022-09-13T04:33:56;1.80;;;1.08;;
16624;SDS011;8426;48.496;9.098;2022-09-13T04:39:01;3.03;;;1.23;;
16624;SDS011;8426;48.496;9.098;2022-09-13T04:44:05;1.83;;;1.40;;
16624;SDS011;8426;48.496;9.098;2022-09-13T04:49:08;2.35;;;1.60;;
16624;SDS011;8426;48.496;9.098;2022-09-13T04:54:14;5.57;;;1.77;;
16624;SDS011;8426;48.496;9.098;2022-09-13T04:59:18;2.65;;;1.70;;
16624;SDS011;8426;48.496;9.098;2022-09-13T05:04:21;2.35;;;1.63;;
16624;SDS011;8426;48.496;9.098;2022-09-13T05:09:29;3.80;;;2.10;;
16624;SDS011;8426;48.496;9.098;2022-09-13T05:14:36;3.60;;;1.83;;
16624;SDS011;8426;48.496;9.098;2022-09-13T05:19:39;5.43;;;2.10;;
16624;SDS011;8426;48.496;9.098;2022-09-13T05:24:43;2.00;;;1.63;;
16624;SDS011;8426;48.496;9.098;2022-09-13T05:29:46;3.42;;;1.92;;
16624;SDS011;8426;48.496;9.098;2022-09-13T05:34:50;2.67;;;1.58;;
16624;SDS011;8426;48.496;9.098;2022-09-13T05:39:54;3.47;;;1.70;;
16624;SDS011;8426;48.496;9.098;2022-09-13T05:45:13;2.58;;;1.67;;
16624;SDS011;8426;48.496;9.098;2022-09-13T05:50:16;4.10;;;2.05;;
16624;SDS011;8426;48.496;9.098;2022-09-13T05:55:41;3.38;;;2.10;;
16624;SDS011;8426;48.496;9.098;2022-09-13T06:00:44;2.47;;;2.10;;
16624;SDS011;8426;48.496;9.098;2022-09-13T06:05:56;7.90;;;2.08;;
16624;SDS011;8426;48.496;9.098;2022-09-13T06:11:01;4.07;;;1.70;;
16624;SDS011;8426;48.496;9.098;2022-09-13T06:16:06;3.08;;;1.63;;
16624;SDS011;8426;48.496;9.098;2022-09-13T06:21:11;3.95;;;1.90;;
16624;SDS011;8426;48.496;9.098;2022-09-13T06:26:21;2.92;;;1.27;;
16624;SDS011;8426;48.496;9.098;2022-09-13T06:31:26;3.90;;;1.20;;
16624;SDS011;8426;48.496;9.098;2022-09-13T06:36:29;2.92;;;1.33;;
16624;SDS011;8426;48.496;9.098;2022-09-13T06:41:36;3.38;;;1.20;;
16624;SDS011;8426;48.496;9.098;2022-09-13T06:46:39;1.48;;;0.90;;
16624;SDS011;8426;48.496;9.098;2022-09-13T06:51:42;4.57;;;1.00;;
16624;SDS011;8426;48.496;9.098;2022-09-13T06:56:47;8.20;;;1.30;;
16624;SDS011;8426;48.496;9.098;2022-09-13T07:01:50;4.70;;;1.30;;
16624;SDS011;8426;48.496;9.098;2022-09-13T07:06:53;3.10;;;1.40;;
16624;SDS011;8426;48.496;9.098;2022-09-13T07:11:58;5.50;;;1.35;;
16624;SDS011;8426;48.496;9.098;2022-09-13T07:17:01;2.65;;;1.10;;
16624;SDS011;8426;48.496;9.098;2022-09-13T07:22:05;4.20;;;1.27;;
16624;SDS011;8426;48.496;9.098;2022-09-13T07:27:10;2.33;;;1.00;;
16624;SDS011;8426;48.496;9.098;2022-09-13T07:32:15;1.67;;;1.08;;
16624;SDS011;8426;48.496;9.098;2022-09-13T07:37:19;5.03;;;1.20;;
16624;SDS011;8426;48.496;9.098;2022-09-13T07:42:24;3.17;;;2.13;;
16624;SDS011;8426;48.496;9.098;2022-09-13T07:47:27;5.57;;;2.75;;
16624;SDS011;8426;48.496;9.098;2022-09-13T07:52:30;3.10;;;1.60;;
16624;SDS011;8426;48.496;9.098;2022-09-13T07:57:40;2.00;;;1.50;;
16624;SDS011;8426;48.496;9.098;2022-09-13T08:02:43;3.05;;;1.80;;
16624;SDS011;8426;48.496;9.098;2022-09-13T08:07:46;3.42;;;1.30;;
16624;SDS011;8426;48.496;9.098;2022-09-13T08:12:51;4.50;;;1.60;;
16624;SDS011;8426;48.496;9.098;2022-09-13T08:17:56;1.75;;;1.00;;
16624;SDS011;8426;48.496;9.098;2022-09-13T08:22:59;6.20;;;1.08;;
16624;SDS011;8426;48.496;9.098;2022-09-13T08:28:05;5.47;;;1.35;;
16624;SDS011;8426;48.496;9.098;2022-09-13T08:33:09;3.42;;;0.80;;
16624;SDS011;8426;48.496;9.098;2022-09-13T08:38:13;2.13;;;0.95;;
16624;SDS011;8426;48.496;9.098;2022-09-13T08:43:19;3.53;;;0.93;;
16624;SDS011;8426;48.496;9.098;2022-09-13T08:48:35;0.95;;;0.68;;
16624;SDS011;8426;48.496;9.098;2022-09-13T08:53:44;6.50;;;1.27;;
16624;SDS011;8426;48.496;9.098;2022-09-13T08:58:58;4.03;;;1.25;;
16624;SDS011;8426;48.496;9.098;2022-09-13T09:04:11;4.78;;;1.05;;
16624;SDS011;8426;48.496;9.098;2022-09-13T09:09:49;5.35;;;1.10;;
16624;SDS011;8426;48.496;9.098;2022-09-13T09:14:58;3.75;;;1.17;;
16624;SDS011;8426;48.496;9.098;2022-09-13T09:20:07;3.03;;;1.30;;
16624;SDS011;8426;48.496;9.098;2022-09-13T09:25:43;3.50;;;1.00;;
16624;SDS011;8426;48.496;9.098;2022-09-13T09:30:50;4.55;;;1.00;;
16624;SDS011;8426;48.496;9.098;2022-09-13T09:36:02;2.75;;;0.90;;
16624;SDS011;8426;48.496;9.098;2022-09-13T09:41:15;4.18;;;0.90;;
16624;SDS011;8426;48.496;9.098;2022-09-13T09:46:28;1.88;;;0.90;;
16624;SDS011;8426;48.496;9.098;2022-09-13T09:51:39;5.00;;;0.80;;
16624;SDS011;8426;48.496;9.098;2022-09-13T09:56:50;1.80;;;0.70;;
16624;SDS011;8426;48.496;9.098;2022-09-13T10:01:56;1.10;;;0.73;;
16624;SDS011;8426;48.496;9.098;2022-09-13T10:07:08;1.30;;;1.08;;
16624;SDS011;8426;48.496;9.098;2022-09-13T10:12:24;3.50;;;1.02;;
16624;SDS011;8426;48.496;9.098;2022-09-13T10:17:30;1.70;;;0.90;;
16624;SDS011;8426;48.496;9.098;2022-09-13T10:22:33;1.45;;;0.70;;
16624;SDS011;8426;48.496;9.098;2022-09-13T10:27:37;1.55;;;0.65;;
16624;SDS011;8426;48.496;9.098;2022-09-13T10:32:45;5.15;;;0.68;;
16624;SDS011;8426;48.496;9.098;2022-09-13T10:37:57;0.80;;;0.40;;
16624;SDS011;8426;48.496;9.098;2022-09-13T10:43:01;15.15;;;1.25;;
16624;SDS011;8426;48.496;9.098;2022-09-13T10:48:11;5.05;;;0.40;;
16624;SDS011;8426;48.496;9.098;2022-09-13T10:53:27;1.45;;;0.60;;
16624;SDS011;8426;48.496;9.098;2022-09-13T10:58:35;1.58;;;0.60;;
16624;SDS011;8426;48.496;9.098;2022-09-13T11:03:46;7.05;;;1.20;;
16624;SDS011;8426;48.496;9.098;2022-09-13T11:09:06;2.95;;;0.45;;
16624;SDS011;8426;48.496;9.098;2022-09-13T11:14:20;1.10;;;0.55;;
16624;SDS011;8426;48.496;9.098;2022-09-13T11:19:39;12.35;;;1.17;;
16624;SDS011;8426;48.496;9.098;2022-09-13T11:25:00;0.70;;;0.50;;
16624;SDS011;8426;48.496;9.098;2022-09-13T11:30:12;1.30;;;0.70;;
16624;SDS011;8426;48.496;9.098;2022-09-13T11:35:35;5.10;;;0.80;;
16624;SDS011;8426;48.496;9.098;2022-09-13T11:40:47;6.03;;;0.63;;
16624;SDS011;8426;48.496;9.098;2022-09-13T11:46:00;0.80;;;0.50;;
16624;SDS011;8426;48.496;9.098;2022-09-13T11:51:16;1.55;;;0.60;;
16624;SDS011;8426;48.496;9.098;2022-09-13T11:56:31;0.68;;;0.40;;
16624;SDS011;8426;48.496;9.098;2022-09-13T12:01:40;1.10;;;0.65;;
16624;SDS011;8426;48.496;9.098;2022-09-13T12:06:51;1.48;;;0.65;;
16624;SDS011;8426;48.496;9.098;2022-09-13T12:12:06;0.98;;;0.50;;
16624;SDS011;8426;48.496;9.098;2022-09-13T12:17:16;1.52;;;0.60;;
16624;SDS011;8426;48.496;9.098;2022-09-13T12:22:29;2.95;;;0.60;;
16624;SDS011;8426;48.496;9.098;2022-09-13T12:27:37;3.90;;;0.50;;
16624;SDS011;8426;48.496;9.098;2022-09-13T12:32:47;1.02;;;0.40;;
16624;SDS011;8426;48.496;9.098;2022-09-13T12:43:46;2.72;;;0.50;;
16624;SDS011;8426;48.496;9.098;2022-09-13T12:49:18;6.72;;;0.63;;
16624;SDS011;8426;48.496;9.098;2022-09-13T12:54:41;2.85;;;0.50;;
16624;SDS011;8426;48.496;9.098;2022-09-13T13:00:07;2.67;;;0.77;;
16624;SDS011;8426;48.496;9.098;2022-09-13T13:05:18;5.88;;;0.75;;
16624;SDS011;8426;48.496;9.098;2022-09-13T13:10:30;1.80;;;0.50;;
16624;SDS011;8426;48.496;9.098;2022-09-13T13:15:57;1.13;;;0.45;;
16624;SDS011;8426;48.496;9.098;2022-09-13T13:21:19;1.67;;;0.57;;
16624;SDS011;8426;48.496;9.098;2022-09-13T13:32:07;1.48;;;0.40;;
16624;SDS011;8426;48.496;9.098;2022-09-13T13:42:40;1.30;;;0.50;;
16624;SDS011;8426;48.496;9.098;2022-09-13T13:47:51;0.70;;;0.43;;
16624;SDS011;8426;48.496;9.098;2022-09-13T13:53:19;1.17;;;0.40;;
16624;SDS011;8426;48.496;9.098;2022-09-13T13:58:51;2.08;;;0.50;;
16624;SDS011;8426;48.496;9.098;2022-09-13T14:09:44;0.88;;;0.40;;
16624;SDS011;8426;48.496;9.098;2022-09-13T14:15:00;1.25;;;0.60;;
16624;SDS011;8426;48.496;9.098;2022-09-13T14:20:12;0.93;;;0.60;;
16624;SDS011;8426;48.496;9.098;2022-09-13T14:25:21;1.02;;;0.65;;
16624;SDS011;8426;48.496;9.098;2022-09-13T14:30:28;0.60;;;0.45;;
16624;SDS011;8426;48.496;9.098;2022-09-13T14:35:40;1.40;;;0.60;;
16624;SDS011;8426;48.496;9.098;2022-09-13T14:40:46;3.58;;;0.50;;
16624;SDS011;8426;48.496;9.098;2022-09-13T14:45:52;1.15;;;0.40;;
16624;SDS011;8426;48.496;9.098;2022-09-13T14:51:01;0.95;;;0.68;;
16624;SDS011;8426;48.496;9.098;2022-09-13T14:56:11;2.78;;;1.05;;
16624;SDS011;8426;48.496;9.098;2022-09-13T15:01:20;3.67;;;0.60;;
16624;SDS011;8426;48.496;9.098;2022-09-13T15:06:31;4.57;;;0.70;;
16624;SDS011;8426;48.496;9.098;2022-09-13T15:11:40;2.58;;;0.60;;
16624;SDS011;8426;48.496;9.098;2022-09-13T15:17:05;9.02;;;0.88;;
16624;SDS011;8426;48.496;9.098;2022-09-13T15:22:18;4.53;;;0.80;;
16624;SDS011;8426;48.496;9.098;2022-09-13T15:27:24;0.90;;;0.50;;
16624;SDS011;8426;48.496;9.098;2022-09-13T15:32:32;1.63;;;0.70;;
16624;SDS011;8426;48.496;9.098;2022-09-13T15:37:39;0.52;;;0.40;;
16624;SDS011;8426;48.496;9.098;2022-09-13T15:42:47;0.60;;;0.50;;
16624;SDS011;8426;48.496;9.098;2022-09-13T15:47:52;0.98;;;0.57;;
16624;SDS011;8426;48.496;9.098;2022-09-13T15:52:55;1.05;;;0.50;;
16624;SDS011;8426;48.496;9.098;2022-09-13T15:57:59;2.13;;;0.70;;
16624;SDS011;8426;48.496;9.098;2022-09-13T16:03:04;2.70;;;0.60;;
16624;SDS011;8426;48.496;9.098;2022-09-13T16:08:07;1.08;;;0.50;;
16624;SDS011;8426;48.496;9.098;2022-09-13T16:13:11;3.05;;;0.50;;
16624;SDS011;8426;48.496;9.098;2022-09-13T16:18:16;1.58;;;0.60;;
16624;SDS011;8426;48.496;9.098;2022-09-13T16:23:19;4.82;;;0.90;;
16624;SDS011;8426;48.496;9.098;2022-09-13T16:28:22;3.50;;;0.98;;
16624;SDS011;8426;48.496;9.098;2022-09-13T16:33:27;8.48;;;1.05;;
16624;SDS011;8426;48.496;9.098;2022-09-13T16:38:31;4.15;;;0.80;;
16624;SDS011;8426;48.496;9.098;2022-09-13T16:43:34;2.47;;;1.27;;
16624;SDS011;8426;48.496;9.098;2022-09-13T16:48:39;1.83;;;0.90;;
16624;SDS011;8426;48.496;9.098;2022-09-13T16:53:42;1.73;;;1.10;;
16624;SDS011;8426;48.496;9.098;2022-09-13T16:58:45;3.33;;;1.10;;
16624;SDS011;8426;48.496;9.098;2022-09-13T17:03:51;1.67;;;0.90;;
16624;SDS011;8426;48.496;9.098;2022-09-13T17:08:56;1.88;;;1.00;;
16624;SDS011;8426;48.496;9.098;2022-09-13T17:14:02;0.70;;;0.68;;
16624;SDS011;8426;48.496;9.098;2022-09-13T17:19:13;1.58;;;0.73;;
16624;SDS011;8426;48.496;9.098;2022-09-13T17:24:17;2.50;;;1.20;;
16624;SDS011;8426;48.496;9.098;2022-09-13T17:29:22;1.75;;;0.65;;
16624;SDS011;8426;48.496;9.098;2022-09-13T17:34:27;2.78;;;0.98;;
16624;SDS011;8426;48.496;9.098;2022-09-13T17:39:31;1.30;;;0.45;;
16624;SDS011;8426;48.496;9.098;2022-09-13T17:44:34;2.65;;;0.88;;
16624;SDS011;8426;48.496;9.098;2022-09-13T17:49:38;9.57;;;0.68;;
16624;SDS011;8426;48.496;9.098;2022-09-13T17:54:43;1.95;;;0.65;;
16624;SDS011;8426;48.496;9.098;2022-09-13T17:59:49;0.52;;;0.50;;
16624;SDS011;8426;48.496;9.098;2022-09-13T18:04:55;1.48;;;0.75;;
16624;SDS011;8426;48.496;9.098;2022-09-13T18:10:05;1.05;;;0.65;;
16624;SDS011;8426;48.496;9.098;2022-09-13T18:15:29;2.50;;;0.80;;
16624;SDS011;8426;48.496;9.098;2022-09-13T18:20:34;5.13;;;0.90;;
16624;SDS011;8426;48.496;9.098;2022-09-13T18:25:41;2.05;;;0.80;;
16624;SDS011;8426;48.496;9.098;2022-09-13T18:30:49;1.25;;;0.90;;
16624;SDS011;8426;48.496;9.098;2022-09-13T18:35:55;2.42;;;0.80;;
16624;SDS011;8426;48.496;9.098;2022-09-13T18:41:00;3.67;;;1.50;;
16624;SDS011;8426;48.496;9.098;2022-09-13T18:46:06;4.18;;;1.35;;
16624;SDS011;8426;48.496;9.098;2022-09-13T18:51:14;3.50;;;1.13;;
16624;SDS011;8426;48.496;9.098;2022-09-13T18:56:19;2.72;;;1.00;;
16624;SDS011;8426;48.496;9.098;2022-09-13T19:01:24;9.27;;;1.30;;
16624;SDS011;8426;48.496;9.098;2022-09-13T19:06:30;2.90;;;1.23;;
16624;SDS011;8426;48.496;9.098;2022-09-13T19:11:40;2.63;;;1.40;;
16624;SDS011;8426;48.496;9.098;2022-09-13T19:16:47;4.38;;;1.35;;
16624;SDS011;8426;48.496;9.098;2022-09-13T19:21:52;1.98;;;1.10;;
16624;SDS011;8426;48.496;9.098;2022-09-13T19:26:56;2.38;;;1.20;;
16624;SDS011;8426;48.496;9.098;2022-09-13T19:31:59;7.05;;;1.35;;
16624;SDS011;8426;48.496;9.098;2022-09-13T19:37:04;3.70;;;1.10;;
16624;SDS011;8426;48.496;9.098;2022-09-13T19:42:07;3.63;;;0.88;;
16624;SDS011;8426;48.496;9.098;2022-09-13T19:47:10;2.67;;;0.93;;
16624;SDS011;8426;48.496;9.098;2022-09-13T19:52:35;1.70;;;0.90;;
16624;SDS011;8426;48.496;9.098;2022-09-13T19:57:38;1.92;;;0.82;;
16624;SDS011;8426;48.496;9.098;2022-09-13T20:02:46;1.67;;;0.82;;
16624;SDS011;8426;48.496;9.098;2022-09-13T20:07:50;3.33;;;0.90;;
16624;SDS011;8426;48.496;9.098;2022-09-13T20:12:54;1.55;;;0.98;;
16624;SDS011;8426;48.496;9.098;2022-09-13T20:17:57;5.25;;;1.15;;
16624;SDS011;8426;48.496;9.098;2022-09-13T20:23:02;2.53;;;0.80;;
16624;SDS011;8426;48.496;9.098;2022-09-13T20:28:05;3.38;;;0.80;;
16624;SDS011;8426;48.496;9.098;2022-09-13T20:33:09;3.53;;;0.88;;
16624;SDS011;8426;48.496;9.098;2022-09-13T20:38:13;5.38;;;1.13;;
16624;SDS011;8426;48.496;9.098;2022-09-13T20:43:20;1.98;;;0.80;;
16624;SDS011;8426;48.496;9.098;2022-09-13T20:48:23;1.85;;;0.93;;
16624;SDS011;8426;48.496;9.098;2022-09-13T20:53:28;4.85;;;1.10;;
16624;SDS011;8426;48.496;9.098;2022-09-13T20:58:31;1.30;;;0.90;;
16624;SDS011;8426;48.496;9.098;2022-09-13T21:03:34;1.85;;;1.00;;
16624;SDS011;8426;48.496;9.098;2022-09-13T21:08:40;2.33;;;0.75;;
16624;SDS011;8426;48.496;9.098;2022-09-13T21:13:45;2.10;;;0.70;;
16624;SDS011;8426;48.496;9.098;2022-09-13T21:18:49;3.80;;;0.93;;
16624;SDS011;8426;48.496;9.098;2022-09-13T21:23:55;5.03;;;1.05;;
16624;SDS011;8426;48.496;9.098;2022-09-13T21:28:58;2.45;;;1.10;;
16624;SDS011;8426;48.496;9.098;2022-09-13T21:34:02;7.25;;;1.00;;
16624;SDS011;8426;48.496;9.098;2022-09-13T21:39:07;1.48;;;0.80;;
16624;SDS011;8426;48.496;9.098;2022-09-13T21:44:11;5.00;;;1.08;;
16624;SDS011;8426;48.496;9.098;2022-09-13T21:49:14;8.50;;;1.10;;
16624;SDS011;8426;48.496;9.098;2022-09-13T21:54:19;4.40;;;1.10;;
16624;SDS011;8426;48.496;9.098;2022-09-13T21:59:22;3.70;;;1.08;;
16624;SDS011;8426;48.496;9.098;2022-09-13T22:04:26;1.05;;;0.80;;
16624;SDS011;8426;48.496;9.098;2022-09-13T22:09:30;1.67;;;1.05;;
16624;SDS011;8426;48.496;9.098;2022-09-13T22:14:33;3.20;;;0.90;;
16624;SDS011;8426;48.496;9.098;2022-09-13T22:19:36;2.03;;;1.02;;
16624;SDS011;8426;48.496;9.098;2022-09-13T22:24:41;5.72;;;1.38;;
16624;SDS011;8426;48.496;9.098;2022-09-13T22:29:46;2.58;;;1.35;;
16624;SDS011;8426;48.496;9.098;2022-09-13T22:34:49;2.25;;;1.38;;
16624;SDS011;8426;48.496;9.098;2022-09-13T22:39:54;2.95;;;1.48;;
16624;SDS011;8426;48.496;9.098;2022-09-13T22:44:59;3.33;;;1.15;;
16624;SDS011;8426;48.496;9.098;2022-09-13T22:50:03;3.42;;;1.13;;
16624;SDS011;8426;48.496;9.098;2022-09-13T22:55:08;3.88;;;1.10;;
16624;SDS011;8426;48.496;9.098;2022-09-13T23:00:12;5.07;;;1.00;;
16624;SDS011;8426;48.496;9.098;2022-09-13T23:05:17;5.18;;;1.10;;
16624;SDS011;8426;48.496;9.098;2022-09-13T23:10:21;2.78;;;1.10;;
16624;SDS011;8426;48.496;9.098;2022-09-13T23:15:25;1.75;;;1.00;;
16624;SDS011;8426;48.496;9.098;2022-09-13T23:20:28;7.45;;;1.38;;
16624;SDS011;8426;48.496;9.098;2022-09-13T23:25:33;2.25;;;1.30;;
16624;SDS011;8426;48.496;9.098;2022-09-13T23:30:37;1.95;;;1.10;;
16624;SDS011;8426;48.496;9.098;2022-09-13T23:35:40;4.80;;;0.98;;
16624;SDS011;8426;48.496;9.098;2022-09-13T23:40:44;3.33;;;1.10;;
16624;SDS011;8426;48.496;9.098;2022-09-13T23:45:47;2.03;;;1.05;;
16624;SDS011;8426;48.496;9.098;2022-09-13T23:50:57;3.45;;;1.00;;
16624;SDS011;8426;48.496;9.098;2022-09-13T23:56:03;2.13;;;1.10;;
